Time;durP1;ratioP1;P1;durP2;ratioP2;P2;SDS_P1;SDS_P2;PMS_P1;PMS_P2;Temp;Humidity;BMP_temperature;BMP_pressure;BME280_temperature;BME280_humidity;BME280_pressure;Samples;Min_cycle;Max_cycle;Signal;HPM_P1;HPM_P2
2022/12/14 06:56:34;;;;;;;;;;;;;;;;;;5139794;27;1896;-73
2022/12/14 06:59:00;;;;;;;;;;;;;;;;;;5088029;28;1319;-73
2022/12/14 07:01:27;;;;;;;;;;;;;;;;;;5085734;28;1337;-69
2022/12/14 07:03:54;;;;;;;;;;;;;;;;;;5084058;28;1258;-71
2022/12/14 07:06:20;;;;;;;;;;;;;;;;;;5087082;28;1075;-71
2022/12/14 07:08:47;;;;;;;;;;;;;;;;;;5087280;28;1228;-71
2022/12/14 07:11:14;;;;;;;;;;;;;;;;;;5088020;28;1392;-69
2022/12/14 07:13:42;;;;;;;;;;;;;;;;;;5085273;28;1427;-71
2022/12/14 07:16:10;;;;;;;;;;;;;;;;;;5088060;28;1969;-69
2022/12/14 07:18:36;;;;;;;;;;;;;;;;;;5086982;28;1106;-71
2022/12/14 07:21:03;;;;;;;;;;;;;;;;;;5087777;28;1320;-70
2022/12/14 07:23:30;;;;;;;;;;;;;;;;;;5087626;28;608;-72
2022/12/14 07:26:00;;;;;;;;;;;;;;;;;;5088608;28;826;-73
2022/12/14 07:28:27;;;;;;;;;;;;;;;;;;5082624;28;1059;-72
2022/12/14 07:30:56;;;;;;;;;;;;;;;;;;5086022;28;1108;-72
2022/12/14 07:33:22;;;;;;;;;;;;;;;;;;5085423;28;1420;-72
2022/12/14 07:35:49;;;;;;;;;;;;;;;;;;5093760;28;1976;-73
2022/12/14 07:38:15;;;;;;;;;;;;;;;;;;5094708;28;754;-72
2022/12/14 07:40:42;;;;;;;;;;;;;;;;;;5087077;28;790;-72
2022/12/14 07:43:08;;;;;;;;;;;;;;;;;;5085392;28;1797;-71
2022/12/14 07:45:34;;;;;;;;;;;;;;;;;;5083358;28;1082;-72
2022/12/14 07:48:02;;;;;;;;;;;;;;;;;;5083114;28;1537;-72
2022/12/14 07:50:28;;;;;;;;;;;;;;;;;;5078464;28;1138;-72
2022/12/14 07:52:54;;;;;;;;;;;;;;;;;;5063587;28;1396;-73
2022/12/14 07:55:20;;;;;;;;;;;;;;;;;;5065293;28;1955;-73
2022/12/14 07:57:46;;;;;;;;;;;;;;;;;;5067768;28;921;-72
2022/12/14 08:00:13;;;;;;;;;;;;;;;;;;5068227;28;755;-72
2022/12/14 08:02:39;;;;;;;;;;;;;;;;;;5065831;28;1364;-72
2022/12/14 08:05:07;;;;;;;;;;;;;;;;;;5067905;28;917;-72
2022/12/14 08:07:34;;;;;;;;;;;;;;;;;;5054965;28;1084;-73
2022/12/14 08:10:00;;;;;;;;;;;;;;;;;;5055775;28;1376;-72
2022/12/14 08:12:26;;;;;;;;;;;;;;;;;;5068907;28;1747;-72
2022/12/14 08:14:52;;;;;;;;;;;;;;;;;;5069082;28;1918;-73
2022/12/14 08:17:18;;;;;;;;;;;;;;;;;;5069823;28;1551;-74
2022/12/14 08:19:44;;;;;;;;;;;;;;;;;;5055550;28;1235;-73
2022/12/14 08:22:12;;;;;;;;;;;;;;;;;;5054266;28;1475;-73
2022/12/14 08:24:38;;;;;;;;;;;;;;;;;;5054306;28;885;-74
2022/12/14 08:27:05;;;;;;;;;;;;;;;;;;5057202;28;1139;-74
2022/12/14 08:29:32;;;;;;;;;;;;;;;;;;5065059;28;1269;-73
2022/12/14 08:31:58;;;;;;;;;;;;;;;;;;5072645;28;1404;-73
2022/12/14 08:34:24;;;;;;;;;;;;;;;;;;5062529;28;1290;-72
2022/12/14 08:36:50;;;;;;;;;;;;;;;;;;5065439;28;1973;-71
2022/12/14 08:39:18;;;;;;;;;;;;;;;;;;5071970;28;1132;-71
2022/12/14 08:41:45;;;;;;;;;;;;;;;;;;5050710;28;1358;-73
2022/12/14 08:44:15;;;;;;;;;;;;;;;;;;5050703;28;1012;-74
2022/12/14 08:46:41;;;;;;;;;;;;;;;;;;5053269;28;1087;-72
2022/12/14 08:49:08;;;;;;;;;;;;;;;;;;5052318;28;1125;-71
2022/12/14 08:51:35;;;;;;;;;;;;;;;;;;5050860;28;1423;-71
2022/12/14 08:54:02;;;;;;;;;;;;;;;;;;5052586;28;1110;-71
2022/12/14 08:56:29;;;;;;;;;;;;;;;;;;5052224;28;1922;-71
2022/12/14 08:58:56;;;;;;;;;;;;;;;;;;5052737;28;1043;-72
2022/12/14 09:01:22;;;;;;;;;;;;;;;;;;5050538;28;1416;-71
2022/12/14 09:03:49;;;;;;;;;;;;;;;;;;5052787;28;1137;-71
2022/12/14 09:06:17;;;;;;;;;;;;;;;;;;5052542;28;1251;-73
2022/12/14 09:08:43;;;;;;;;;;;;;;;;;;5048164;28;924;-73
2022/12/14 09:11:11;;;;;;;;;;;;;;;;;;5059455;28;1706;-72
2022/12/14 09:13:38;;;;;;;;;;;;;;;;;;5071113;28;1109;-73
2022/12/14 09:16:05;;;;;;;;;;;;;;;;;;5070335;28;1926;-73
2022/12/14 09:18:33;;;;;;;;;;;;;;;;;;5069807;28;782;-73
2022/12/14 09:20:59;;;;;;;;;;;;;;;;;;5071116;28;948;-73
2022/12/14 09:23:26;;;;;;;;;;;;;;;;;;5071156;28;1129;-73
2022/12/14 09:26:02;;;;;;;;;;;;;;;;;;5068490;28;1497;-73
2022/12/14 09:28:28;;;;;;;;;;;;;;;;;;5072891;28;1094;-73
2022/12/14 09:30:57;;;;;;;;;;;;;;;;;;5063615;28;2016;-72
2022/12/14 09:33:23;;;;;;;;;;;;;;;;;;5067279;28;1511;-72
2022/12/14 09:35:49;;;;;;;;;;;;;;;;;;5069458;28;1914;-72
2022/12/14 09:38:16;;;;;;;;;;;;;;;;;;5067979;28;905;-72
2022/12/14 09:40:42;;;;;;;;;;;;;;;;;;5068248;28;796;-72
2022/12/14 09:43:08;;;;;;;;;;;;;;;;;;5067506;28;1325;-72
2022/12/14 09:45:35;;;;;;;;;;;;;;;;;;5068357;28;841;-72
2022/12/14 09:48:03;;;;;;;;;;;;;;;;;;5067749;28;1494;-72
2022/12/14 09:50:29;;;;;;;;;;;;;;;;;;5067956;28;1063;-72
2022/12/14 09:52:56;;;;;;;;;;;;;;;;;;5068688;28;1410;-72
2022/12/14 09:55:25;;;;;;;;;;;;;;;;;;5070866;28;1975;-72
2022/12/14 09:57:51;;;;;;;;;;;;;;;;;;5070765;28;1138;-72
2022/12/14 10:00:18;;;;;;;;;;;;;;;;;;5071086;28;1160;-72
2022/12/14 10:02:49;;;;;;;;;;;;;;;;;;5070984;28;1424;-72
2022/12/14 10:05:23;;;;;;;;;;;;;;;;;;5070283;28;1935;-72
2022/12/14 10:07:51;;;;;;;;;;;;;;;;;;5071394;28;1110;-72
2022/12/14 10:10:19;;;;;;;;;;;;;;;;;;5071551;28;933;-72
2022/12/14 10:12:47;;;;;;;;;;;;;;;;;;5066832;28;1411;-72
2022/12/14 10:15:17;;;;;;;;;;;;;;;;;;5063691;28;1239;-72
2022/12/14 10:17:49;;;;;;;;;;;;;;;;;;5069189;28;1226;-71
2022/12/14 10:20:16;;;;;;;;;;;;;;;;;;5070239;28;896;-72
2022/12/14 10:22:46;;;;;;;;;;;;;;;;;;5066181;28;1482;-72
2022/12/14 10:25:14;;;;;;;;;;;;;;;;;;5049081;28;1898;-72
2022/12/14 10:27:40;;;;;;;;;;;;;;;;;;5057596;28;1163;-72
2022/12/14 10:30:07;;;;;;;;;;;;;;;;;;5064725;28;1175;-71
2022/12/14 10:32:35;;;;;;;;;;;;;;;;;;5048246;28;1358;-72
2022/12/14 10:35:01;;;;;;;;;;;;;;;;;;5046831;28;825;-71
2022/12/14 10:37:29;;;;;;;;;;;;;;;;;;5045932;28;1232;-71
2022/12/14 10:39:58;;;;;;;;;;;;;;;;;;5045413;28;985;-73
2022/12/14 10:42:26;;;;;;;;;;;;;;;;;;5044914;28;1334;-72
2022/12/14 10:44:54;;;;;;;;;;;;;;;;;;5045690;28;1123;-72
2022/12/14 10:47:21;;;;;;;;;;;;;;;;;;5047147;28;2446;-72
2022/12/14 10:49:49;;;;;;;;;;;;;;;;;;5049378;28;1055;-72
2022/12/14 10:52:17;;;;;;;;;;;;;;;;;;5049703;28;1420;-72
2022/12/14 10:54:44;;;;;;;;;;;;;;;;;;5055953;28;1067;-72
2022/12/14 10:57:13;;;;;;;;;;;;;;;;;;5058362;28;993;-72
2022/12/14 10:59:40;;;;;;;;;;;;;;;;;;5054666;28;1170;-71
2022/12/14 11:02:06;;;;;;;;;;;;;;;;;;5050351;28;1338;-72
2022/12/14 11:04:34;;;;;;;;;;;;;;;;;;5050742;28;1067;-72
2022/12/14 11:07:01;;;;;;;;;;;;;;;;;;5050686;28;1923;-72
2022/12/14 11:09:28;;;;;;;;;;;;;;;;;;5050819;28;1123;-73
2022/12/14 11:11:54;;;;;;;;;;;;;;;;;;5050313;28;1322;-72
2022/12/14 11:14:22;;;;;;;;;;;;;;;;;;5049579;28;1241;-73
2022/12/14 11:16:48;;;;;;;;;;;;;;;;;;5050939;28;870;-72
2022/12/14 11:19:15;;;;;;;;;;;;;;;;;;5064352;28;1107;-72
2022/12/14 11:21:41;;;;;;;;;;;;;;;;;;5070059;28;1348;-72
2022/12/14 11:24:11;;;;;;;;;;;;;;;;;;5070635;28;1070;-72
2022/12/14 11:26:38;;;;;;;;;;;;;;;;;;5070899;28;1973;-72
2022/12/14 11:29:04;;;;;;;;;;;;;;;;;;5069331;28;1422;-72
2022/12/14 11:31:34;;;;;;;;;;;;;;;;;;5067068;28;1404;-72
2022/12/14 11:34:01;;;;;;;;;;;;;;;;;;5070733;28;893;-72
2022/12/14 11:36:28;;;;;;;;;;;;;;;;;;5070209;28;1095;-72
2022/12/14 11:38:56;;;;;;;;;;;;;;;;;;5070909;28;1083;-72
2022/12/14 11:41:22;;;;;;;;;;;;;;;;;;5071133;28;1348;-72
2022/12/14 11:43:51;;;;;;;;;;;;;;;;;;5071965;28;1412;-72
2022/12/14 11:46:19;;;;;;;;;;;;;;;;;;5075308;28;1963;-72
2022/12/14 11:48:47;;;;;;;;;;;;;;;;;;5068928;28;1276;-71
2022/12/14 11:51:14;;;;;;;;;;;;;;;;;;5054270;28;1329;-71
2022/12/14 11:53:40;;;;;;;;;;;;;;;;;;5054161;28;918;-72
2022/12/14 11:56:07;;;;;;;;;;;;;;;;;;5053790;28;1064;-72
2022/12/14 11:58:34;;;;;;;;;;;;;;;;;;5053268;28;1076;-71
2022/12/14 12:01:02;;;;;;;;;;;;;;;;;;5053723;28;1060;-71
2022/12/14 12:03:29;;;;;;;;;;;;;;;;;;5052219;28;1226;-71
2022/12/14 12:06:00;;;;;;;;;;;;;;;;;;5052623;28;1917;-71
2022/12/14 12:08:27;;;;;;;;;;;;;;;;;;5053712;28;782;-71
2022/12/14 12:10:54;;;;;;;;;;;;;;;;;;5053361;28;948;-71
2022/12/14 12:13:21;;;;;;;;;;;;;;;;;;5051152;28;1435;-71
2022/12/14 12:15:49;;;;;;;;;;;;;;;;;;5053710;28;959;-71
2022/12/14 12:18:16;;;;;;;;;;;;;;;;;;5052526;28;1106;-71
2022/12/14 12:20:42;;;;;;;;;;;;;;;;;;5053733;28;944;-71
2022/12/14 12:23:11;;;;;;;;;;;;;;;;;;5053392;28;1655;-71
2022/12/14 12:25:38;;;;;;;;;;;;;;;;;;5073605;28;836;-71
2022/12/14 12:28:06;;;;;;;;;;;;;;;;;;5071884;28;1903;-71
2022/12/14 12:30:33;;;;;;;;;;;;;;;;;;5073862;28;1063;-71
2022/12/14 12:33:01;;;;;;;;;;;;;;;;;;5071508;28;1420;-71
2022/12/14 12:35:29;;;;;;;;;;;;;;;;;;5073857;28;889;-71
2022/12/14 12:37:56;;;;;;;;;;;;;;;;;;5071569;28;1141;-71
2022/12/14 12:40:24;;;;;;;;;;;;;;;;;;5073289;28;810;-71
2022/12/14 12:42:51;;;;;;;;;;;;;;;;;;5072543;28;1351;-71
2022/12/14 12:45:19;;;;;;;;;;;;;;;;;;5084561;22;3551;-76
2022/12/14 12:47:46;;;;;;;;;;;;;;;;;;5055487;28;1977;-75
2022/12/14 12:50:13;;;;;;;;;;;;;;;;;;5052494;28;1161;-75
2022/12/14 12:52:41;;;;;;;;;;;;;;;;;;5052586;28;1127;-75
2022/12/14 12:55:08;;;;;;;;;;;;;;;;;;5052914;28;1290;-74
2022/12/14 12:57:36;;;;;;;;;;;;;;;;;;5052480;28;1068;-75
2022/12/14 13:00:04;;;;;;;;;;;;;;;;;;5052937;28;1088;-75
2022/12/14 13:02:31;;;;;;;;;;;;;;;;;;5050598;28;1409;-75
2022/12/14 13:04:58;;;;;;;;;;;;;;;;;;5052751;28;1332;-75
2022/12/14 13:07:26;;;;;;;;;;;;;;;;;;5050659;28;1914;-75
2022/12/14 13:09:53;;;;;;;;;;;;;;;;;;5051370;28;1067;-76
2022/12/14 13:12:21;;;;;;;;;;;;;;;;;;5048055;28;944;-75
2022/12/14 13:14:49;;;;;;;;;;;;;;;;;;5050770;28;1237;-75
2022/12/14 13:17:23;;;;;;;;;;;;;;;;;;5050782;28;1486;-75
2022/12/14 13:19:49;;;;;;;;;;;;;;;;;;5052635;28;1048;-75
2022/12/14 13:22:22;;;;;;;;;;;;;;;;;;5051744;28;1100;-74
2022/12/14 13:24:48;;;;;;;;;;;;;;;;;;5051192;28;1109;-75
2022/12/14 13:27:26;;;;;;;;;;;;;;;;;;5052104;28;1902;-75
2022/12/14 13:29:59;;;;;;;;;;;;;;;;;;5052254;28;1241;-75
2022/12/14 13:32:30;;;;;;;;;;;;;;;;;;5051181;28;826;-75
2022/12/14 13:34:57;;;;;;;;;;;;;;;;;;5053040;28;1419;-74
2022/12/14 13:37:44;;;;;;;;;;;;;;;;;;5049551;28;1235;-75
2022/12/14 13:40:29;;;;;;;;;;;;;;;;;;5037343;28;1569;-75
2022/12/14 13:42:57;;;;;;;;;;;;;;;;;;5043248;28;1396;-75
2022/12/14 13:45:28;;;;;;;;;;;;;;;;;;5041082;28;1482;-77
2022/12/14 13:47:55;;;;;;;;;;;;;;;;;;5047676;28;1977;-75
2022/12/14 13:50:25;;;;;;;;;;;;;;;;;;5053532;28;934;-75
2022/12/14 13:52:52;;;;;;;;;;;;;;;;;;5068247;28;1119;-75
2022/12/14 13:55:22;;;;;;;;;;;;;;;;;;5068695;28;1304;-74
2022/12/14 13:57:48;;;;;;;;;;;;;;;;;;5054735;28;1135;-74
2022/12/14 14:00:29;;;;;;;;;;;;;;;;;;5069621;28;1185;-74
2022/12/14 14:02:57;;;;;;;;;;;;;;;;;;5052750;28;1429;-75
2022/12/14 14:05:44;;;;;;;;;;;;;;;;;;5069352;28;1305;-74
2022/12/14 14:08:26;;;;;;;;;;;;;;;;;;5055787;28;1906;-75
2022/12/14 14:10:52;;;;;;;;;;;;;;;;;;5055619;28;885;-74
2022/12/14 14:13:37;;;;;;;;;;;;;;;;;;5062317;28;1078;-75
2022/12/14 14:16:04;;;;;;;;;;;;;;;;;;5066762;28;1325;-74
2022/12/14 14:18:31;;;;;;;;;;;;;;;;;;5059000;28;1075;-75
2022/12/14 14:21:12;;;;;;;;;;;;;;;;;;5052350;28;1143;-75
2022/12/14 14:23:41;;;;;;;;;;;;;;;;;;5051805;28;1061;-75
2022/12/14 14:26:27;;;;;;;;;;;;;;;;;;5051666;28;1478;-76
2022/12/14 14:29:04;;;;;;;;;;;;;;;;;;5051776;28;1415;-76
2022/12/14 14:31:43;;;;;;;;;;;;;;;;;;5050521;28;1128;-75
2022/12/14 14:34:13;;;;;;;;;;;;;;;;;;5052245;28;949;-74
2022/12/14 14:36:40;;;;;;;;;;;;;;;;;;5052029;28;1300;-76
2022/12/14 14:39:07;;;;;;;;;;;;;;;;;;5066950;28;874;-75
2022/12/14 14:41:34;;;;;;;;;;;;;;;;;;5049969;28;1334;-74
2022/12/14 14:44:01;;;;;;;;;;;;;;;;;;5050914;28;1354;-75
2022/12/14 14:46:31;;;;;;;;;;;;;;;;;;5051944;28;1270;-75
2022/12/14 14:48:57;;;;;;;;;;;;;;;;;;5051360;28;1032;-76
2022/12/14 14:51:26;;;;;;;;;;;;;;;;;;5051294;28;1108;-75
2022/12/14 14:54:07;;;;;;;;;;;;;;;;;;5052245;28;862;-75
2022/12/14 14:56:34;;;;;;;;;;;;;;;;;;5051769;28;1489;-75
2022/12/14 14:59:19;;;;;;;;;;;;;;;;;;5051922;28;862;-75
2022/12/14 15:01:45;;;;;;;;;;;;;;;;;;5051926;28;815;-75
2022/12/14 15:04:13;;;;;;;;;;;;;;;;;;5052292;28;877;-75
2022/12/14 15:06:41;;;;;;;;;;;;;;;;;;5052589;28;1979;-74
2022/12/14 15:09:12;;;;;;;;;;;;;;;;;;5053140;28;1063;-75
2022/12/14 15:11:42;;;;;;;;;;;;;;;;;;5056026;28;1452;-75
2022/12/14 15:14:15;;;;;;;;;;;;;;;;;;5062178;28;1208;-75
2022/12/14 15:16:42;;;;;;;;;;;;;;;;;;5067362;28;1419;-75
2022/12/14 15:19:21;;;;;;;;;;;;;;;;;;5059577;28;1203;-75
2022/12/14 15:21:49;;;;;;;;;;;;;;;;;;5054900;28;1068;-74
2022/12/14 15:24:15;;;;;;;;;;;;;;;;;;5055732;28;921;-75
2022/12/14 15:26:41;;;;;;;;;;;;;;;;;;5054395;28;1384;-75
2022/12/14 15:29:12;;;;;;;;;;;;;;;;;;5053391;28;1993;-74
2022/12/14 15:31:40;;;;;;;;;;;;;;;;;;5052588;28;1374;-74
2022/12/14 15:34:06;;;;;;;;;;;;;;;;;;5043857;28;1366;-74
2022/12/14 15:36:34;;;;;;;;;;;;;;;;;;5035222;28;1356;-74
2022/12/14 15:39:01;;;;;;;;;;;;;;;;;;5049990;28;1231;-75
2022/12/14 15:41:28;;;;;;;;;;;;;;;;;;5034873;28;783;-75
2022/12/14 15:43:55;;;;;;;;;;;;;;;;;;5052289;28;1160;-75
2022/12/14 15:46:24;;;;;;;;;;;;;;;;;;5052524;28;1472;-74
2022/12/14 15:48:54;;;;;;;;;;;;;;;;;;5053447;28;1914;-75
2022/12/14 15:51:20;;;;;;;;;;;;;;;;;;5052913;28;1115;-73
2022/12/14 15:53:47;;;;;;;;;;;;;;;;;;5053786;28;1157;-74
2022/12/14 15:56:16;;;;;;;;;;;;;;;;;;5053514;28;1329;-74
2022/12/14 15:58:43;;;;;;;;;;;;;;;;;;5054354;28;751;-72
2022/12/14 16:01:10;;;;;;;;;;;;;;;;;;5054974;28;1059;-74
2022/12/14 16:03:37;;;;;;;;;;;;;;;;;;5052592;28;1132;-74
2022/12/14 16:06:03;;;;;;;;;;;;;;;;;;5053242;28;1334;-75
2022/12/14 16:08:30;;;;;;;;;;;;;;;;;;5053119;28;1918;-75
2022/12/14 16:10:57;;;;;;;;;;;;;;;;;;5054405;28;826;-74
2022/12/14 16:13:25;;;;;;;;;;;;;;;;;;5053821;28;1111;-75
2022/12/14 16:15:52;;;;;;;;;;;;;;;;;;5053231;28;1385;-75
2022/12/14 16:18:19;;;;;;;;;;;;;;;;;;5052759;28;1347;-75
2022/12/14 16:20:47;;;;;;;;;;;;;;;;;;5054075;28;1122;-74
2022/12/14 16:23:23;;;;;;;;;;;;;;;;;;5052656;28;1475;-74
2022/12/14 16:25:50;;;;;;;;;;;;;;;;;;5053997;28;1314;-75
2022/12/14 16:28:20;;;;;;;;;;;;;;;;;;5052370;28;1903;-75
2022/12/14 16:30:56;;;;;;;;;;;;;;;;;;5053899;28;1056;-75
2022/12/14 16:33:22;;;;;;;;;;;;;;;;;;5053287;28;856;-74
2022/12/14 16:35:57;;;;;;;;;;;;;;;;;;5053934;28;1388;-74
2022/12/14 16:38:24;;;;;;;;;;;;;;;;;;5053764;28;787;-74
2022/12/14 16:40:52;;;;;;;;;;;;;;;;;;5052244;28;1192;-74
2022/12/14 16:43:24;;;;;;;;;;;;;;;;;;5053285;28;798;-74
2022/12/14 16:46:08;;;;;;;;;;;;;;;;;;5053636;28;1290;-75
2022/12/14 16:48:37;;;;;;;;;;;;;;;;;;5053357;28;1918;-75
2022/12/14 16:51:16;;;;;;;;;;;;;;;;;;5063521;28;1173;-74
2022/12/14 16:53:48;;;;;;;;;;;;;;;;;;5051868;28;1064;-75
2022/12/14 16:56:15;;;;;;;;;;;;;;;;;;5054395;28;1391;-75
2022/12/14 16:58:41;;;;;;;;;;;;;;;;;;5054341;28;1061;-75
2022/12/14 17:01:07;;;;;;;;;;;;;;;;;;5054497;28;1071;-75
2022/12/14 17:03:34;;;;;;;;;;;;;;;;;;5054072;28;779;-75
2022/12/14 17:06:02;;;;;;;;;;;;;;;;;;5054760;28;1308;-75
2022/12/14 17:08:29;;;;;;;;;;;;;;;;;;5053814;28;1969;-75
2022/12/14 17:10:56;;;;;;;;;;;;;;;;;;5052741;28;1215;-75
2022/12/14 17:13:22;;;;;;;;;;;;;;;;;;5051729;28;1207;-75
2022/12/14 17:15:53;;;;;;;;;;;;;;;;;;5053851;28;1314;-75
2022/12/14 17:18:19;;;;;;;;;;;;;;;;;;5056321;28;1157;-76
2022/12/14 17:20:45;;;;;;;;;;;;;;;;;;5054738;28;1186;-75
2022/12/14 17:23:15;;;;;;;;;;;;;;;;;;5053550;28;1276;-75
2022/12/14 17:25:41;;;;;;;;;;;;;;;;;;5052509;28;1371;-75
2022/12/14 17:28:09;;;;;;;;;;;;;;;;;;5052014;28;1983;-75
2022/12/14 17:30:36;;;;;;;;;;;;;;;;;;5002960;28;1199;-75
2022/12/14 17:33:03;;;;;;;;;;;;;;;;;;4980121;28;795;-78
2022/12/14 17:35:31;;;;;;;;;;;;;;;;;;5018541;28;1359;-74
2022/12/14 17:37:58;;;;;;;;;;;;;;;;;;5051292;28;1059;-74
2022/12/14 17:40:25;;;;;;;;;;;;;;;;;;5040535;28;1367;-74
2022/12/14 17:42:52;;;;;;;;;;;;;;;;;;5030680;28;1154;-74
2022/12/14 17:45:20;;;;;;;;;;;;;;;;;;5030311;28;1327;-75
2022/12/14 17:47:46;;;;;;;;;;;;;;;;;;5033106;28;1902;-73
2022/12/14 17:50:12;;;;;;;;;;;;;;;;;;5041792;28;1159;-74
2022/12/14 17:52:39;;;;;;;;;;;;;;;;;;5052967;28;1554;-74
2022/12/14 17:55:05;;;;;;;;;;;;;;;;;;5049351;28;1418;-75
2022/12/14 17:57:33;;;;;;;;;;;;;;;;;;5048891;28;1374;-75
2022/12/14 18:02:39;;;;;;;;;;;;;;;;;;5047050;28;1474;-74
2022/12/14 18:05:06;;;;;;;;;;;;;;;;;;5045800;28;1400;-74
2022/12/14 18:07:32;;;;;;;;;;;;;;;;;;5050074;28;1570;-74
2022/12/14 18:09:58;;;;;;;;;;;;;;;;;;5050003;28;1914;-75
2022/12/14 18:12:24;;;;;;;;;;;;;;;;;;5049482;28;1249;-75
2022/12/14 18:14:52;;;;;;;;;;;;;;;;;;5050271;28;1137;-75
2022/12/14 18:17:18;;;;;;;;;;;;;;;;;;5051051;28;1123;-75
2022/12/14 18:19:44;;;;;;;;;;;;;;;;;;5049474;28;1483;-75
2022/12/14 18:22:11;;;;;;;;;;;;;;;;;;5049032;28;1411;-75
2022/12/14 18:24:37;;;;;;;;;;;;;;;;;;5048383;28;1425;-76
2022/12/14 18:27:04;;;;;;;;;;;;;;;;;;5048765;28;1393;-77
2022/12/14 18:29:30;;;;;;;;;;;;;;;;;;5028058;28;1973;-78
2022/12/14 18:31:58;;;;;;;;;;;;;;;;;;4991511;28;945;-77
2022/12/14 18:34:25;;;;;;;;;;;;;;;;;;4989020;28;1295;-76
2022/12/14 18:36:51;;;;;;;;;;;;;;;;;;4992355;28;1337;-77
2022/12/14 18:39:18;;;;;;;;;;;;;;;;;;4990858;28;862;-77
2022/12/14 18:41:45;;;;;;;;;;;;;;;;;;4987762;28;846;-77
2022/12/14 18:44:11;;;;;;;;;;;;;;;;;;5000579;28;944;-76
2022/12/14 18:46:38;;;;;;;;;;;;;;;;;;4996855;28;1409;-77
2022/12/14 18:49:06;;;;;;;;;;;;;;;;;;5015266;28;1926;-75
2022/12/14 18:51:32;;;;;;;;;;;;;;;;;;5035368;28;1150;-77
2022/12/14 18:54:01;;;;;;;;;;;;;;;;;;5007282;28;1084;-77
2022/12/14 18:56:28;;;;;;;;;;;;;;;;;;4993596;28;1583;-77
2022/12/14 18:58:55;;;;;;;;;;;;;;;;;;4970514;28;1177;-77
2022/12/14 19:01:22;;;;;;;;;;;;;;;;;;4967253;28;755;-76
2022/12/14 19:03:49;;;;;;;;;;;;;;;;;;4968426;28;853;-77
2022/12/14 19:06:17;;;;;;;;;;;;;;;;;;4987035;28;1751;-76
2022/12/14 19:08:44;;;;;;;;;;;;;;;;;;4990926;28;1934;-76
2022/12/14 19:11:11;;;;;;;;;;;;;;;;;;4988955;28;1667;-77
2022/12/14 19:13:38;;;;;;;;;;;;;;;;;;5011633;22;1993;-73
2022/12/14 19:16:17;;;;;;;;;;;;;;;;;;5005675;28;1127;-73
2022/12/14 19:18:47;;;;;;;;;;;;;;;;;;5009429;28;1257;-71
2022/12/14 19:21:24;;;;;;;;;;;;;;;;;;5016383;28;892;-71
2022/12/14 19:24:00;;;;;;;;;;;;;;;;;;5026328;28;1340;-72
2022/12/14 19:26:30;;;;;;;;;;;;;;;;;;5034135;28;1082;-74
2022/12/14 19:28:56;;;;;;;;;;;;;;;;;;5023213;28;1998;-73
2022/12/14 19:31:23;;;;;;;;;;;;;;;;;;5018198;28;1254;-73
2022/12/14 19:33:49;;;;;;;;;;;;;;;;;;5015001;28;1314;-70
2022/12/14 19:36:16;;;;;;;;;;;;;;;;;;5023849;28;888;-73
2022/12/14 19:38:43;;;;;;;;;;;;;;;;;;5006410;28;1737;-73
2022/12/14 19:41:12;;;;;;;;;;;;;;;;;;5012673;28;1591;-71
2022/12/14 19:43:40;;;;;;;;;;;;;;;;;;5022378;28;1301;-71
2022/12/14 19:46:07;;;;;;;;;;;;;;;;;;5019204;28;1340;-71
2022/12/14 19:48:34;;;;;;;;;;;;;;;;;;5003229;28;2003;-70
2022/12/14 19:51:04;;;;;;;;;;;;;;;;;;5008952;28;894;-70
2022/12/14 19:53:31;;;;;;;;;;;;;;;;;;5021304;28;1301;-71
2022/12/14 19:55:58;;;;;;;;;;;;;;;;;;5024869;28;889;-71
2022/12/14 19:58:27;;;;;;;;;;;;;;;;;;5027969;28;912;-71
2022/12/14 20:00:54;;;;;;;;;;;;;;;;;;5007196;28;1906;-70
2022/12/14 20:03:21;;;;;;;;;;;;;;;;;;5024223;28;1712;-70
2022/12/14 20:05:51;;;;;;;;;;;;;;;;;;5082058;28;1010;-70
2022/12/14 20:08:17;;;;;;;;;;;;;;;;;;5070163;28;1918;-70
2022/12/14 20:10:44;;;;;;;;;;;;;;;;;;5070076;28;1029;-70
2022/12/14 20:13:11;;;;;;;;;;;;;;;;;;5071293;28;1415;-71
2022/12/14 20:15:41;;;;;;;;;;;;;;;;;;5071468;28;869;-71
2022/12/14 20:18:09;;;;;;;;;;;;;;;;;;5069775;28;2024;-71
2022/12/14 20:20:35;;;;;;;;;;;;;;;;;;5071032;28;1125;-70
2022/12/14 20:23:01;;;;;;;;;;;;;;;;;;5069486;28;1315;-71
2022/12/14 20:25:27;;;;;;;;;;;;;;;;;;5070129;28;1012;-71
2022/12/14 20:27:54;;;;;;;;;;;;;;;;;;5076583;28;1447;-71
2022/12/14 20:30:20;;;;;;;;;;;;;;;;;;5093771;28;1909;-72
2022/12/14 20:32:48;;;;;;;;;;;;;;;;;;5091782;28;1349;-72
2022/12/14 20:35:17;;;;;;;;;;;;;;;;;;5093536;28;928;-71
2022/12/14 20:37:43;;;;;;;;;;;;;;;;;;5090209;28;913;-70
2022/12/14 20:40:10;;;;;;;;;;;;;;;;;;5090694;28;1130;-70
2022/12/14 20:42:36;;;;;;;;;;;;;;;;;;5093155;28;1426;-70
2022/12/14 20:45:02;;;;;;;;;;;;;;;;;;5093636;28;1011;-71
2022/12/14 20:47:29;;;;;;;;;;;;;;;;;;5093267;28;995;-70
2022/12/14 20:49:56;;;;;;;;;;;;;;;;;;5092918;28;1914;-71
2022/12/14 20:52:22;;;;;;;;;;;;;;;;;;5091867;28;1409;-71
2022/12/14 20:54:49;;;;;;;;;;;;;;;;;;5093448;28;1063;-72
2022/12/14 20:57:15;;;;;;;;;;;;;;;;;;5093517;28;1118;-71
2022/12/14 20:59:42;;;;;;;;;;;;;;;;;;5093730;28;782;-71
2022/12/14 21:02:09;;;;;;;;;;;;;;;;;;5091026;28;1321;-71
2022/12/14 21:04:36;;;;;;;;;;;;;;;;;;5106643;28;1114;-71
2022/12/14 21:07:03;;;;;;;;;;;;;;;;;;5093058;28;1111;-70
2022/12/14 21:09:29;;;;;;;;;;;;;;;;;;5091091;28;1976;-72
2022/12/14 21:14:41;;;;;;;;;;;;;;;;;;5089629;28;1016;-72
2022/12/14 21:17:08;;;;;;;;;;;;;;;;;;5090419;28;1044;-71
2022/12/14 21:19:35;;;;;;;;;;;;;;;;;;5075974;28;1154;-71
2022/12/14 21:22:01;;;;;;;;;;;;;;;;;;5070278;28;1312;-71
2022/12/14 21:24:29;;;;;;;;;;;;;;;;;;5069025;28;940;-70
2022/12/14 21:26:55;;;;;;;;;;;;;;;;;;5089013;28;1709;-72
2022/12/14 21:29:21;;;;;;;;;;;;;;;;;;5088824;28;1894;-70
2022/12/14 21:31:47;;;;;;;;;;;;;;;;;;5088196;28;1138;-69
2022/12/14 21:34:14;;;;;;;;;;;;;;;;;;5082053;28;2015;-71
2022/12/14 21:36:40;;;;;;;;;;;;;;;;;;5078886;28;2317;-71
2022/12/14 21:39:06;;;;;;;;;;;;;;;;;;5088650;28;1114;-70
2022/12/14 21:44:18;;;;;;;;;;;;;;;;;;5088218;28;1339;-70
2022/12/14 21:46:44;;;;;;;;;;;;;;;;;;5088448;28;1067;-71
2022/12/14 21:49:10;;;;;;;;;;;;;;;;;;5088164;28;1981;-70
2022/12/14 21:51:37;;;;;;;;;;;;;;;;;;5086015;28;1110;-71
2022/12/14 21:54:03;;;;;;;;;;;;;;;;;;5086737;28;1391;-70
2022/12/14 21:59:15;;;;;;;;;;;;;;;;;;5087997;28;945;-70
2022/12/14 22:01:42;;;;;;;;;;;;;;;;;;5086802;28;1135;-71
2022/12/14 22:04:08;;;;;;;;;;;;;;;;;;5085466;28;1381;-70
2022/12/14 22:06:34;;;;;;;;;;;;;;;;;;5090130;28;1120;-70
2022/12/14 22:09:01;;;;;;;;;;;;;;;;;;5087813;28;1914;-70
2022/12/14 22:11:27;;;;;;;;;;;;;;;;;;5087088;28;1123;-70
2022/12/14 22:13:53;;;;;;;;;;;;;;;;;;5087669;28;1371;-70
2022/12/14 22:16:21;;;;;;;;;;;;;;;;;;5087123;28;1111;-70
2022/12/14 22:18:47;;;;;;;;;;;;;;;;;;5087751;28;1047;-70
2022/12/14 22:21:13;;;;;;;;;;;;;;;;;;5087774;28;968;-70
2022/12/14 22:23:40;;;;;;;;;;;;;;;;;;5087187;28;1342;-71
2022/12/14 22:26:06;;;;;;;;;;;;;;;;;;5090890;28;1051;-71
2022/12/14 22:28:32;;;;;;;;;;;;;;;;;;5088603;28;1063;-70
2022/12/14 22:31:00;;;;;;;;;;;;;;;;;;5092650;28;1973;-70
2022/12/14 22:33:28;;;;;;;;;;;;;;;;;;5091706;28;1300;-70
2022/12/14 22:35:55;;;;;;;;;;;;;;;;;;5089155;28;1459;-70
2022/12/14 22:38:21;;;;;;;;;;;;;;;;;;5092541;28;1067;-70
2022/12/14 22:40:47;;;;;;;;;;;;;;;;;;5092560;28;1101;-70
2022/12/14 22:43:13;;;;;;;;;;;;;;;;;;5090171;28;1372;-71
2022/12/14 22:45:39;;;;;;;;;;;;;;;;;;5091011;28;1115;-70
2022/12/14 22:48:06;;;;;;;;;;;;;;;;;;5092126;28;747;-70
2022/12/14 22:50:33;;;;;;;;;;;;;;;;;;5091029;28;1960;-70
2022/12/14 22:53:00;;;;;;;;;;;;;;;;;;5089219;28;1286;-70
2022/12/14 22:55:26;;;;;;;;;;;;;;;;;;5091227;28;1040;-70
2022/12/14 22:57:52;;;;;;;;;;;;;;;;;;5091764;28;952;-70
2022/12/14 23:00:18;;;;;;;;;;;;;;;;;;5092367;28;1102;-70
2022/12/14 23:02:45;;;;;;;;;;;;;;;;;;5090848;28;1335;-71
2022/12/14 23:05:11;;;;;;;;;;;;;;;;;;5088401;28;1307;-70
2022/12/14 23:07:38;;;;;;;;;;;;;;;;;;5091490;28;921;-70
